createdAt,value
2023-02-23T00:02:25.383Z,5.63
2023-02-23T00:05:31.522Z,6.00
2023-02-23T00:08:36.060Z,6.37
2023-02-23T00:11:38.009Z,5.53
2023-02-23T00:14:39.780Z,5.93
2023-02-23T00:17:41.867Z,5.57
2023-02-23T00:20:47.981Z,5.10
2023-02-23T00:23:53.628Z,6.27
2023-02-23T00:26:55.484Z,5.70
2023-02-23T00:29:57.090Z,5.03
2023-02-23T00:32:58.698Z,6.13
2023-02-23T00:36:08.318Z,5.43
2023-02-23T00:39:23.311Z,5.60
2023-02-23T00:42:29.232Z,5.67
2023-02-23T00:45:30.943Z,6.17
2023-02-23T00:48:33.467Z,6.67
2023-02-23T00:51:35.151Z,6.07
2023-02-23T00:54:36.732Z,6.50
2023-02-23T00:57:38.678Z,6.90
2023-02-23T01:00:43.237Z,7.67
2023-02-23T01:03:45.294Z,6.60
2023-02-23T01:06:46.985Z,6.83
2023-02-23T01:09:48.900Z,6.93
2023-02-23T01:12:51.011Z,7.00
2023-02-23T01:15:52.828Z,6.77
2023-02-23T01:18:58.874Z,6.50
2023-02-23T01:22:03.464Z,6.27
2023-02-23T01:25:05.291Z,6.73
2023-02-23T01:28:09.049Z,7.13
2023-02-23T01:31:12.697Z,7.97
2023-02-23T01:34:14.831Z,7.03
2023-02-23T01:37:16.458Z,7.30
2023-02-23T01:40:28.705Z,7.47
2023-02-23T01:43:30.474Z,7.20
2023-02-23T01:46:33.250Z,7.00
2023-02-23T01:49:35.756Z,7.17
2023-02-23T01:52:38.168Z,7.03
2023-02-23T01:55:39.936Z,6.77
2023-02-23T01:58:43.806Z,7.20
2023-02-23T02:01:45.604Z,7.17
2023-02-23T02:04:52.147Z,8.23
2023-02-23T02:07:59.134Z,6.90
2023-02-23T02:11:00.771Z,6.50
2023-02-23T02:14:12.864Z,7.07
2023-02-23T02:17:45.130Z,7.30
2023-02-23T02:20:53.038Z,6.83
2023-02-23T02:24:13.479Z,6.30
2023-02-23T02:27:28.821Z,6.57
2023-02-23T02:30:37.629Z,6.43
2023-02-23T02:33:45.910Z,7.27
2023-02-23T02:36:57.445Z,5.63
2023-02-23T02:40:16.517Z,6.70
2023-02-23T02:43:22.046Z,6.57
2023-02-23T02:46:27.131Z,6.10
2023-02-23T02:49:28.856Z,6.43
2023-02-23T02:52:35.753Z,6.90
2023-02-23T02:55:39.705Z,5.60
2023-02-23T02:58:43.622Z,7.10
2023-02-23T03:02:05.043Z,6.90
2023-02-23T03:05:37.491Z,6.77
2023-02-23T03:09:18.205Z,6.30
2023-02-23T03:12:57.674Z,7.43
2023-02-23T03:16:25.872Z,6.07
2023-02-23T03:19:50.049Z,5.50
2023-02-23T03:23:16.806Z,5.53
2023-02-23T03:26:53.346Z,5.93
2023-02-23T03:30:29.340Z,6.60
2023-02-23T03:34:05.264Z,6.23
2023-02-23T03:37:32.136Z,5.97
2023-02-23T03:40:53.334Z,6.10
2023-02-23T03:44:19.489Z,5.70
2023-02-23T03:47:42.216Z,5.13
2023-02-23T03:51:12.844Z,5.83
2023-02-23T03:54:56.391Z,6.30
2023-02-23T03:58:20.345Z,5.50
2023-02-23T04:01:42.445Z,5.67
2023-02-23T04:05:04.748Z,6.20
2023-02-23T04:08:26.545Z,5.37
2023-02-23T04:11:49.974Z,5.60
2023-02-23T04:15:06.940Z,6.30
2023-02-23T04:18:12.470Z,6.83
2023-02-23T04:21:14.181Z,6.40
2023-02-23T04:24:15.895Z,8.27
2023-02-23T04:27:17.791Z,6.63
2023-02-23T04:30:20.729Z,6.80
2023-02-23T04:33:24.149Z,7.77
2023-02-23T04:36:26.856Z,7.70
2023-02-23T04:39:28.557Z,7.00
2023-02-23T04:42:30.477Z,7.67
2023-02-23T04:45:32.085Z,10.20
2023-02-23T04:48:33.942Z,8.53
2023-02-23T04:51:36.683Z,7.40
2023-02-23T04:54:39.308Z,8.57
2023-02-23T04:57:41.014Z,7.63
2023-02-23T05:00:42.890Z,8.20
2023-02-23T05:03:44.506Z,8.30
2023-02-23T05:06:46.150Z,7.00
2023-02-23T05:09:47.776Z,6.70
2023-02-23T05:12:49.326Z,8.83
2023-02-23T05:15:51.184Z,6.80
2023-02-23T05:18:52.849Z,7.03
2023-02-23T05:22:00.156Z,7.27
2023-02-23T05:25:01.887Z,7.77
2023-02-23T05:28:03.790Z,7.03
2023-02-23T05:31:05.911Z,9.13
2023-02-23T05:34:07.593Z,10.30
2023-02-23T05:37:16.330Z,6.80
2023-02-23T05:40:18.268Z,8.10
2023-02-23T05:43:19.869Z,7.50
2023-02-23T05:46:24.158Z,8.00
2023-02-23T05:49:25.806Z,8.13
2023-02-23T05:52:27.466Z,9.30
2023-02-23T05:55:29.058Z,7.97
2023-02-23T05:58:31.121Z,7.93
2023-02-23T06:01:33.132Z,7.10
2023-02-23T06:04:35.101Z,7.43
2023-02-23T06:07:37.209Z,7.67
2023-02-23T06:10:38.822Z,7.17
2023-02-23T06:13:40.401Z,6.40
2023-02-23T06:16:45.378Z,6.60
2023-02-23T06:19:47.014Z,7.20
2023-02-23T06:22:48.664Z,7.97
2023-02-23T06:25:50.296Z,11.63
2023-02-23T06:28:51.939Z,11.97
2023-02-23T06:31:53.682Z,12.57
2023-02-23T06:34:55.465Z,12.73
2023-02-23T06:37:57.086Z,14.23
2023-02-23T06:40:58.697Z,18.27
2023-02-23T06:44:00.288Z,18.40
2023-02-23T06:47:03.781Z,17.50
2023-02-23T06:50:06.888Z,17.50
2023-02-23T06:53:08.502Z,15.47
2023-02-23T06:56:12.431Z,16.87
2023-02-23T06:59:14.219Z,16.60
2023-02-23T07:02:15.911Z,19.30
2023-02-23T07:05:17.482Z,22.63
2023-02-23T07:08:19.160Z,21.03
2023-02-23T07:11:21.193Z,25.03
2023-02-23T07:14:26.976Z,24.10
2023-02-23T07:17:28.934Z,24.57
2023-02-23T07:20:31.403Z,20.70
2023-02-23T07:23:33.098Z,18.87
2023-02-23T07:26:34.991Z,18.73
2023-02-23T07:29:36.531Z,17.70
2023-02-23T07:32:38.199Z,19.70
2023-02-23T07:35:39.846Z,15.90
2023-02-23T07:38:41.406Z,14.90
2023-02-23T07:41:43.074Z,13.67
2023-02-23T07:44:52.889Z,16.03
2023-02-23T07:47:54.665Z,17.90
2023-02-23T07:50:56.603Z,18.00
2023-02-23T07:54:01.895Z,19.80
2023-02-23T07:57:03.606Z,18.13
2023-02-23T08:00:06.338Z,17.80
2023-02-23T08:03:14.102Z,15.83
2023-02-23T08:06:19.456Z,13.07
2023-02-23T08:09:22.949Z,10.13
2023-02-23T08:12:24.626Z,11.63
2023-02-23T08:15:26.400Z,10.70
2023-02-23T08:18:28.191Z,10.17
2023-02-23T08:21:31.780Z,9.27
2023-02-23T08:24:33.419Z,10.13
2023-02-23T08:27:35.725Z,10.77
2023-02-23T08:30:37.482Z,11.70
2023-02-23T08:33:39.309Z,9.23
2023-02-23T08:36:40.893Z,8.60
2023-02-23T08:39:44.137Z,7.67
2023-02-23T08:42:45.748Z,7.53
2023-02-23T08:45:47.994Z,8.13
2023-02-23T08:48:49.716Z,9.10
2023-02-23T08:51:51.611Z,7.63
2023-02-23T08:54:53.243Z,10.27
2023-02-23T08:57:54.925Z,8.10
2023-02-23T09:00:56.734Z,7.77
2023-02-23T09:03:59.141Z,7.00
2023-02-23T09:07:01.345Z,9.63
2023-02-23T09:10:03.019Z,7.00
2023-02-23T09:13:04.755Z,7.03
2023-02-23T09:16:07.805Z,7.10
2023-02-23T09:19:09.447Z,6.73
2023-02-23T09:22:11.123Z,6.67
2023-02-23T09:25:12.890Z,6.57
2023-02-23T09:28:15.393Z,5.88
2023-02-23T09:31:19.119Z,5.43
2023-02-23T09:34:20.960Z,6.10
2023-02-23T09:37:22.592Z,6.10
2023-02-23T09:40:25.822Z,6.70
2023-02-23T09:43:47.808Z,7.63
2023-02-23T09:46:49.514Z,6.13
2023-02-23T09:49:51.927Z,6.33
2023-02-23T09:53:16.791Z,26.00
2023-02-23T09:56:18.373Z,9.13
2023-02-23T09:59:21.821Z,7.60
2023-02-23T10:02:24.823Z,4.90
2023-02-23T10:05:31.707Z,5.57
2023-02-23T10:08:36.420Z,5.30
2023-02-23T10:11:46.441Z,5.50
2023-02-23T10:14:57.298Z,5.20
2023-02-23T10:18:08.380Z,4.70
2023-02-23T10:21:20.210Z,5.00
2023-02-23T10:24:25.423Z,4.50
2023-02-23T10:27:30.839Z,4.97
2023-02-23T10:30:34.126Z,4.50
2023-02-23T10:33:37.376Z,4.80
2023-02-23T10:36:44.541Z,4.93
2023-02-23T10:39:48.028Z,4.87
2023-02-23T10:42:50.067Z,4.43
2023-02-23T10:45:53.215Z,5.10
2023-02-23T10:48:57.062Z,9.77
2023-02-23T10:52:02.861Z,4.90
2023-02-23T10:55:05.483Z,4.87
2023-02-23T10:58:16.996Z,4.63
2023-02-23T11:01:49.066Z,4.30
2023-02-23T11:04:56.963Z,4.50
2023-02-23T11:08:10.861Z,4.17
2023-02-23T11:11:15.820Z,4.13
2023-02-23T11:14:17.678Z,4.27
2023-02-23T11:17:27.729Z,3.70
2023-02-23T11:20:33.461Z,5.23
2023-02-23T11:23:36.162Z,4.00
2023-02-23T11:26:40.035Z,4.27
2023-02-23T11:29:46.861Z,4.27
2023-02-23T11:32:51.321Z,5.10
2023-02-23T11:36:00.116Z,5.53
2023-02-23T11:39:18.240Z,5.50
2023-02-23T11:42:21.314Z,5.37
2023-02-23T11:45:25.207Z,5.93
2023-02-23T11:48:34.625Z,6.40
2023-02-23T11:51:37.505Z,5.90
2023-02-23T11:54:40.683Z,7.00
2023-02-23T11:57:43.143Z,6.97
2023-02-23T12:00:54.807Z,6.90
2023-02-23T12:03:57.827Z,6.53
2023-02-23T12:07:18.241Z,6.40
2023-02-23T12:10:23.663Z,6.80
2023-02-23T12:13:44.291Z,8.67
2023-02-23T12:16:48.253Z,8.87
2023-02-23T12:20:02.451Z,9.77
2023-02-23T12:23:07.798Z,9.93
2023-02-23T12:26:21.505Z,8.10
2023-02-23T12:29:30.423Z,8.77
2023-02-23T12:32:44.440Z,7.93
2023-02-23T12:35:50.268Z,8.17
2023-02-23T12:38:55.026Z,9.00
2023-02-23T12:42:02.704Z,9.03
2023-02-23T12:45:06.611Z,8.33
2023-02-23T12:48:27.081Z,8.33
2023-02-23T12:51:48.963Z,8.53
2023-02-23T12:54:50.644Z,7.80
2023-02-23T12:57:56.684Z,8.77
2023-02-23T13:01:30.711Z,8.10
2023-02-23T13:04:51.042Z,8.30
2023-02-23T13:07:55.354Z,8.70
2023-02-23T13:10:58.744Z,9.90
2023-02-23T13:14:03.422Z,10.23
2023-02-23T13:17:25.662Z,11.00
2023-02-23T13:20:37.156Z,9.57
2023-02-23T13:23:54.582Z,9.43
2023-02-23T13:27:16.369Z,8.10
2023-02-23T13:30:20.773Z,8.80
2023-02-23T13:33:35.217Z,8.43
2023-02-23T13:36:44.169Z,9.50
2023-02-23T13:39:48.841Z,9.03
2023-02-23T13:42:58.862Z,8.60
2023-02-23T13:46:00.591Z,9.00
2023-02-23T13:49:20.416Z,8.87
2023-02-23T13:52:25.101Z,9.20
2023-02-23T13:55:27.386Z,10.00
2023-02-23T13:58:30.825Z,9.70
2023-02-23T14:01:40.080Z,9.23
2023-02-23T14:04:43.082Z,9.63
2023-02-23T14:07:47.013Z,9.30
2023-02-23T14:10:49.063Z,9.60
2023-02-23T14:14:01.891Z,9.97
2023-02-23T14:17:15.816Z,9.73
2023-02-23T14:20:29.893Z,10.80
2023-02-23T14:23:34.912Z,16.47
2023-02-23T14:26:38.224Z,13.30
2023-02-23T14:29:40.979Z,10.73
2023-02-23T14:32:47.338Z,10.07
2023-02-23T14:35:49.616Z,10.00
2023-02-23T14:38:57.223Z,10.57
2023-02-23T14:41:59.960Z,10.20
2023-02-23T14:45:27.411Z,10.73
2023-02-23T14:48:29.119Z,9.00
2023-02-23T14:51:36.824Z,11.80
2023-02-23T14:54:39.454Z,11.93
2023-02-23T14:57:42.405Z,12.80
2023-02-23T15:00:44.055Z,12.10
2023-02-23T15:04:04.718Z,11.80
2023-02-23T15:07:06.796Z,16.37
2023-02-23T15:10:20.438Z,12.53
2023-02-23T15:13:33.218Z,12.33
2023-02-23T15:16:36.403Z,12.00
2023-02-23T15:19:39.335Z,13.97
2023-02-23T15:22:41.784Z,13.37
2023-02-23T15:25:48.081Z,11.50
2023-02-23T15:28:50.039Z,18.70
2023-02-23T15:31:54.322Z,13.13
2023-02-23T15:34:56.232Z,16.40
2023-02-23T15:38:11.245Z,16.83
2023-02-23T15:41:25.801Z,22.50
2023-02-23T15:44:38.349Z,22.60
2023-02-23T15:47:44.222Z,18.83
2023-02-23T15:50:50.759Z,17.60
2023-02-23T15:53:53.392Z,17.23
2023-02-23T15:56:57.174Z,17.43
2023-02-23T16:00:00.660Z,20.40
2023-02-23T16:03:03.276Z,19.00
2023-02-23T16:06:06.882Z,15.00
2023-02-23T16:09:20.988Z,16.00
2023-02-23T16:12:24.874Z,14.00
2023-02-23T16:15:33.080Z,18.77
2023-02-23T16:18:37.197Z,14.83
2023-02-23T16:21:38.897Z,24.27
2023-02-23T16:24:40.554Z,11.70
2023-02-23T16:27:43.059Z,13.60
2023-02-23T16:30:51.161Z,12.23
2023-02-23T16:33:56.876Z,12.70
2023-02-23T16:36:59.828Z,12.20
2023-02-23T16:40:01.484Z,14.50
2023-02-23T16:43:03.157Z,13.17
2023-02-23T16:46:05.088Z,15.10
2023-02-23T16:49:10.159Z,13.70
2023-02-23T16:52:23.769Z,14.70
2023-02-23T16:55:27.054Z,14.60
2023-02-23T16:58:30.746Z,14.00
2023-02-23T17:01:32.471Z,12.57
2023-02-23T17:04:34.192Z,14.30
2023-02-23T17:07:36.635Z,14.97
2023-02-23T17:10:38.338Z,11.50
2023-02-23T17:13:40.069Z,11.40
2023-02-23T17:16:41.755Z,12.60
2023-02-23T17:19:45.549Z,14.13
2023-02-23T17:22:50.359Z,13.57
2023-02-23T17:25:52.036Z,13.83
2023-02-23T17:28:54.099Z,16.27
2023-02-23T17:31:56.067Z,15.67
2023-02-23T17:34:57.854Z,15.37
2023-02-23T17:38:03.241Z,16.50
2023-02-23T17:41:06.673Z,17.57
2023-02-23T17:44:08.466Z,17.83
2023-02-23T17:47:10.237Z,17.67
2023-02-23T17:50:11.950Z,15.83
2023-02-23T17:53:13.699Z,15.50
2023-02-23T17:56:17.824Z,16.37
2023-02-23T17:59:19.582Z,17.23
2023-02-23T18:02:21.478Z,12.60
2023-02-23T18:05:23.130Z,23.17
2023-02-23T18:08:24.767Z,17.77
2023-02-23T18:11:26.798Z,16.47
2023-02-23T18:14:28.702Z,15.73
2023-02-23T18:17:32.520Z,23.07
2023-02-23T18:20:34.127Z,15.37
2023-02-23T18:23:36.082Z,18.50
2023-02-23T18:26:37.739Z,16.07
2023-02-23T18:29:39.495Z,16.27
2023-02-23T18:32:41.368Z,15.93
2023-02-23T18:35:45.034Z,15.20
2023-02-23T18:38:46.924Z,14.63
2023-02-23T18:41:49.215Z,16.80
2023-02-23T18:44:50.932Z,15.10
2023-02-23T18:47:52.741Z,15.70
2023-02-23T18:50:59.251Z,16.57
2023-02-23T18:54:02.297Z,16.27
2023-02-23T18:57:05.703Z,15.50
2023-02-23T19:00:10.758Z,15.57
2023-02-23T19:03:12.995Z,16.30
2023-02-23T19:06:16.191Z,16.87
2023-02-23T19:09:19.614Z,14.80
2023-02-23T19:12:21.170Z,14.83
2023-02-23T19:15:22.818Z,15.77
2023-02-23T19:18:25.772Z,16.10
2023-02-23T19:21:27.773Z,15.93
2023-02-23T19:24:29.524Z,17.80
2023-02-23T19:27:31.846Z,16.30
2023-02-23T19:30:33.394Z,16.07
2023-02-23T19:33:35.138Z,16.73
2023-02-23T19:36:37.055Z,17.27
2023-02-23T19:39:39.322Z,14.53
2023-02-23T19:42:45.814Z,16.30
2023-02-23T19:45:48.427Z,15.20
2023-02-23T19:48:53.457Z,12.80
2023-02-23T19:51:55.205Z,14.17
2023-02-23T19:54:56.815Z,13.63
2023-02-23T19:57:58.491Z,15.03
2023-02-23T20:01:07.116Z,14.33
2023-02-23T20:04:09.831Z,13.67
2023-02-23T20:07:11.590Z,13.13
2023-02-23T20:10:16.586Z,16.83
2023-02-23T20:13:19.259Z,33.77
2023-02-23T20:16:21.578Z,11.97
2023-02-23T20:19:23.253Z,11.67
2023-02-23T20:22:24.968Z,10.97
2023-02-23T20:25:27.325Z,10.20
2023-02-23T20:28:28.929Z,9.77
2023-02-23T20:31:35.176Z,10.50
2023-02-23T20:34:39.228Z,10.67
2023-02-23T20:37:41.344Z,8.10
2023-02-23T20:40:42.995Z,9.20
2023-02-23T20:43:45.051Z,8.13
2023-02-23T20:46:46.925Z,9.10
2023-02-23T20:49:48.776Z,7.70
2023-02-23T20:52:50.450Z,8.37
2023-02-23T20:55:52.733Z,8.70
2023-02-23T20:58:54.528Z,7.57
2023-02-23T21:01:56.266Z,7.20
2023-02-23T21:04:57.856Z,8.37
2023-02-23T21:08:01.060Z,9.30
2023-02-23T21:11:06.195Z,9.73
2023-02-23T21:14:08.498Z,7.80
2023-02-23T21:17:10.794Z,10.27
2023-02-23T21:20:13.004Z,8.63
2023-02-23T21:23:17.603Z,8.80
2023-02-23T21:26:21.760Z,9.00
2023-02-23T21:29:23.892Z,9.20
2023-02-23T21:32:27.117Z,8.80
2023-02-23T21:35:28.819Z,10.90
2023-02-23T21:38:30.481Z,8.33
2023-02-23T21:41:37.892Z,9.70
2023-02-23T21:44:39.571Z,9.90
2023-02-23T21:47:42.830Z,9.97
2023-02-23T21:50:44.566Z,10.00
2023-02-23T21:53:46.552Z,10.33
2023-02-23T21:56:49.506Z,9.37
2023-02-23T21:59:51.505Z,9.13
2023-02-23T22:02:53.253Z,9.10
2023-02-23T22:05:54.913Z,8.70
2023-02-23T22:08:56.846Z,9.27
2023-02-23T22:11:58.463Z,10.50
2023-02-23T22:15:02.556Z,9.77
2023-02-23T22:18:04.160Z,7.03
2023-02-23T22:21:05.970Z,7.70
2023-02-23T22:24:08.675Z,8.27
2023-02-23T22:27:10.466Z,8.33
2023-02-23T22:30:12.505Z,7.70
2023-02-23T22:33:14.346Z,7.43
2023-02-23T22:36:18.412Z,7.53
2023-02-23T22:39:20.130Z,7.30
2023-02-23T22:42:24.488Z,7.83
2023-02-23T22:45:26.176Z,7.87
2023-02-23T22:48:28.859Z,8.13
2023-02-23T22:51:30.674Z,7.20
2023-02-23T22:54:35.340Z,8.40
2023-02-23T22:57:37.102Z,8.53
2023-02-23T23:00:38.690Z,9.00
2023-02-23T23:03:47.321Z,9.03
2023-02-23T23:06:49.603Z,8.07
2023-02-23T23:09:51.716Z,8.73
2023-02-23T23:12:53.355Z,8.60
2023-02-23T23:15:57.730Z,8.33
2023-02-23T23:19:12.285Z,6.47
2023-02-23T23:22:14.308Z,6.63
2023-02-23T23:25:15.953Z,5.20
2023-02-23T23:28:19.036Z,4.43
2023-02-23T23:31:28.091Z,5.13
2023-02-23T23:34:33.483Z,4.10
2023-02-23T23:37:35.661Z,3.07
2023-02-23T23:40:38.008Z,4.07
2023-02-23T23:43:43.056Z,3.80
2023-02-23T23:46:45.163Z,3.17
2023-02-23T23:49:46.742Z,3.10
2023-02-23T23:52:50.515Z,3.20
2023-02-23T23:55:52.473Z,3.00
2023-02-23T23:58:54.243Z,2.97
